sensor_id;sensor_type;location;lat;lon;timestamp;temperature;humidity
790;DHT22;378;48.844;9.156;2023-05-13T00:01:43;11.20;99.90
790;DHT22;378;48.844;9.156;2023-05-13T00:04:09;11.20;99.90
790;DHT22;378;48.844;9.156;2023-05-13T00:06:36;11.20;99.90
790;DHT22;378;48.844;9.156;2023-05-13T00:09:03;11.10;99.90
790;DHT22;378;48.844;9.156;2023-05-13T00:11:31;11.00;99.90
790;DHT22;378;48.844;9.156;2023-05-13T00:13:59;10.90;99.90
790;DHT22;378;48.844;9.156;2023-05-13T00:16:26;10.80;99.90
790;DHT22;378;48.844;9.156;2023-05-13T00:18:54;10.80;99.90
790;DHT22;378;48.844;9.156;2023-05-13T00:21:21;10.80;99.90
790;DHT22;378;48.844;9.156;2023-05-13T00:23:47;10.80;99.90
790;DHT22;378;48.844;9.156;2023-05-13T00:26:14;10.80;99.90
790;DHT22;378;48.844;9.156;2023-05-13T00:28:42;10.80;99.90
790;DHT22;378;48.844;9.156;2023-05-13T00:31:09;10.80;99.90
790;DHT22;378;48.844;9.156;2023-05-13T00:33:37;10.80;99.90
790;DHT22;378;48.844;9.156;2023-05-13T00:36:05;10.70;99.90
790;DHT22;378;48.844;9.156;2023-05-13T00:38:34;10.60;99.90
790;DHT22;378;48.844;9.156;2023-05-13T00:41:01;10.60;99.90
790;DHT22;378;48.844;9.156;2023-05-13T00:43:29;10.50;99.90
790;DHT22;378;48.844;9.156;2023-05-13T00:45:57;10.50;99.90
790;DHT22;378;48.844;9.156;2023-05-13T00:48:25;10.40;99.90
790;DHT22;378;48.844;9.156;2023-05-13T00:50:52;10.40;99.90
790;DHT22;378;48.844;9.156;2023-05-13T00:53:19;10.40;99.90
790;DHT22;378;48.844;9.156;2023-05-13T00:55:46;10.30;99.90
790;DHT22;378;48.844;9.156;2023-05-13T00:58:13;10.30;99.90
790;DHT22;378;48.844;9.156;2023-05-13T01:00:48;10.30;99.90
790;DHT22;378;48.844;9.156;2023-05-13T01:03:23;10.20;99.90
790;DHT22;378;48.844;9.156;2023-05-13T01:05:58;10.20;99.90
790;DHT22;378;48.844;9.156;2023-05-13T01:08:34;10.10;99.90
790;DHT22;378;48.844;9.156;2023-05-13T01:11:05;10.10;99.90
790;DHT22;378;48.844;9.156;2023-05-13T01:13:37;10.10;99.90
790;DHT22;378;48.844;9.156;2023-05-13T01:16:12;10.00;99.90
790;DHT22;378;48.844;9.156;2023-05-13T01:18:44;10.00;99.90
790;DHT22;378;48.844;9.156;2023-05-13T01:21:11;10.00;99.90
790;DHT22;378;48.844;9.156;2023-05-13T01:23:39;10.00;99.90
790;DHT22;378;48.844;9.156;2023-05-13T01:26:06;9.90;99.90
790;DHT22;378;48.844;9.156;2023-05-13T01:28:33;9.90;99.90
790;DHT22;378;48.844;9.156;2023-05-13T01:31:00;9.80;99.90
790;DHT22;378;48.844;9.156;2023-05-13T01:33:28;9.80;99.90
790;DHT22;378;48.844;9.156;2023-05-13T01:35:55;9.70;99.90
790;DHT22;378;48.844;9.156;2023-05-13T01:38:23;9.70;99.90
790;DHT22;378;48.844;9.156;2023-05-13T01:40:53;9.60;99.90
790;DHT22;378;48.844;9.156;2023-05-13T01:43:20;9.60;99.90
790;DHT22;378;48.844;9.156;2023-05-13T01:45:47;9.60;99.90
790;DHT22;378;48.844;9.156;2023-05-13T01:48:14;9.50;99.90
790;DHT22;378;48.844;9.156;2023-05-13T01:50:43;9.60;99.90
790;DHT22;378;48.844;9.156;2023-05-13T01:53:10;9.50;99.90
790;DHT22;378;48.844;9.156;2023-05-13T01:55:37;9.50;99.90
790;DHT22;378;48.844;9.156;2023-05-13T01:58:05;9.40;99.90
790;DHT22;378;48.844;9.156;2023-05-13T02:00:32;9.30;99.90
790;DHT22;378;48.844;9.156;2023-05-13T02:02:59;9.30;99.90
790;DHT22;378;48.844;9.156;2023-05-13T02:05:26;9.20;99.90
790;DHT22;378;48.844;9.156;2023-05-13T02:07:52;9.20;99.90
790;DHT22;378;48.844;9.156;2023-05-13T02:10:19;9.20;99.90
790;DHT22;378;48.844;9.156;2023-05-13T02:12:46;9.20;99.90
790;DHT22;378;48.844;9.156;2023-05-13T02:15:14;9.20;99.90
790;DHT22;378;48.844;9.156;2023-05-13T02:17:41;9.20;99.90
790;DHT22;378;48.844;9.156;2023-05-13T02:20:09;9.20;99.90
790;DHT22;378;48.844;9.156;2023-05-13T02:22:36;9.30;99.90
790;DHT22;378;48.844;9.156;2023-05-13T02:25:03;9.20;99.90
790;DHT22;378;48.844;9.156;2023-05-13T02:27:30;9.30;99.90
790;DHT22;378;48.844;9.156;2023-05-13T02:29:57;9.40;99.90
790;DHT22;378;48.844;9.156;2023-05-13T02:32:25;9.40;99.90
790;DHT22;378;48.844;9.156;2023-05-13T02:34:52;9.40;99.90
790;DHT22;378;48.844;9.156;2023-05-13T02:37:18;9.40;99.90
790;DHT22;378;48.844;9.156;2023-05-13T02:39:45;9.50;99.90
790;DHT22;378;48.844;9.156;2023-05-13T02:42:12;9.60;99.90
790;DHT22;378;48.844;9.156;2023-05-13T02:44:39;9.70;99.90
790;DHT22;378;48.844;9.156;2023-05-13T02:47:06;9.70;99.90
790;DHT22;378;48.844;9.156;2023-05-13T02:49:34;9.80;99.90
790;DHT22;378;48.844;9.156;2023-05-13T02:52:01;9.80;99.90
790;DHT22;378;48.844;9.156;2023-05-13T02:54:27;9.80;99.90
790;DHT22;378;48.844;9.156;2023-05-13T02:56:54;9.80;99.90
790;DHT22;378;48.844;9.156;2023-05-13T02:59:21;9.80;99.90
790;DHT22;378;48.844;9.156;2023-05-13T03:01:48;9.90;99.90
790;DHT22;378;48.844;9.156;2023-05-13T03:04:15;9.90;99.90
790;DHT22;378;48.844;9.156;2023-05-13T03:06:43;9.90;99.90
790;DHT22;378;48.844;9.156;2023-05-13T03:09:10;9.90;99.90
790;DHT22;378;48.844;9.156;2023-05-13T03:11:36;9.90;99.90
790;DHT22;378;48.844;9.156;2023-05-13T03:14:03;9.90;99.90
790;DHT22;378;48.844;9.156;2023-05-13T03:16:30;10.00;99.90
790;DHT22;378;48.844;9.156;2023-05-13T03:18:57;9.90;99.90
790;DHT22;378;48.844;9.156;2023-05-13T03:21:24;10.00;99.90
790;DHT22;378;48.844;9.156;2023-05-13T03:23:53;10.00;99.90
790;DHT22;378;48.844;9.156;2023-05-13T03:26:20;10.00;99.90
790;DHT22;378;48.844;9.156;2023-05-13T03:28:47;9.90;99.90
790;DHT22;378;48.844;9.156;2023-05-13T03:31:14;9.90;99.90
790;DHT22;378;48.844;9.156;2023-05-13T03:33:40;9.90;99.90
790;DHT22;378;48.844;9.156;2023-05-13T03:36:08;9.90;99.90
790;DHT22;378;48.844;9.156;2023-05-13T03:38:34;9.90;99.90
790;DHT22;378;48.844;9.156;2023-05-13T03:41:03;9.80;99.90
790;DHT22;378;48.844;9.156;2023-05-13T03:43:29;9.80;99.90
790;DHT22;378;48.844;9.156;2023-05-13T03:45:57;9.90;99.90
790;DHT22;378;48.844;9.156;2023-05-13T03:48:23;9.90;99.90
790;DHT22;378;48.844;9.156;2023-05-13T03:50:50;9.90;99.90
790;DHT22;378;48.844;9.156;2023-05-13T03:53:17;9.90;99.90
790;DHT22;378;48.844;9.156;2023-05-13T03:55:44;9.90;99.90
790;DHT22;378;48.844;9.156;2023-05-13T03:58:13;10.00;99.90
790;DHT22;378;48.844;9.156;2023-05-13T04:00:41;10.00;99.90
790;DHT22;378;48.844;9.156;2023-05-13T04:03:11;10.10;99.90
790;DHT22;378;48.844;9.156;2023-05-13T04:05:37;10.10;99.90
790;DHT22;378;48.844;9.156;2023-05-13T04:08:04;10.10;99.90
790;DHT22;378;48.844;9.156;2023-05-13T04:10:31;10.10;99.90
790;DHT22;378;48.844;9.156;2023-05-13T04:12:58;10.10;99.90
790;DHT22;378;48.844;9.156;2023-05-13T04:15:26;10.10;99.90
790;DHT22;378;48.844;9.156;2023-05-13T04:17:53;10.10;99.90
790;DHT22;378;48.844;9.156;2023-05-13T04:20:20;10.10;99.90
790;DHT22;378;48.844;9.156;2023-05-13T04:22:47;10.20;99.90
790;DHT22;378;48.844;9.156;2023-05-13T04:25:14;10.20;99.90
790;DHT22;378;48.844;9.156;2023-05-13T04:27:41;10.30;99.90
790;DHT22;378;48.844;9.156;2023-05-13T04:30:08;10.30;99.90
790;DHT22;378;48.844;9.156;2023-05-13T04:32:37;10.20;99.90
790;DHT22;378;48.844;9.156;2023-05-13T04:35:05;10.30;99.90
790;DHT22;378;48.844;9.156;2023-05-13T04:37:32;10.30;99.90
790;DHT22;378;48.844;9.156;2023-05-13T04:39:58;10.30;99.90
790;DHT22;378;48.844;9.156;2023-05-13T04:42:25;10.30;99.90
790;DHT22;378;48.844;9.156;2023-05-13T04:44:52;10.30;99.90
790;DHT22;378;48.844;9.156;2023-05-13T04:47:19;10.30;99.90
790;DHT22;378;48.844;9.156;2023-05-13T04:49:47;10.30;99.90
790;DHT22;378;48.844;9.156;2023-05-13T04:52:14;10.30;99.90
790;DHT22;378;48.844;9.156;2023-05-13T04:54:41;10.20;99.90
790;DHT22;378;48.844;9.156;2023-05-13T04:57:08;10.20;99.90
790;DHT22;378;48.844;9.156;2023-05-13T04:59:34;10.20;99.90
790;DHT22;378;48.844;9.156;2023-05-13T05:02:01;10.20;99.90
790;DHT22;378;48.844;9.156;2023-05-13T05:04:28;10.30;99.90
790;DHT22;378;48.844;9.156;2023-05-13T05:06:56;10.20;99.90
790;DHT22;378;48.844;9.156;2023-05-13T05:09:23;10.20;99.90
790;DHT22;378;48.844;9.156;2023-05-13T05:11:50;10.20;99.90
790;DHT22;378;48.844;9.156;2023-05-13T05:14:17;10.40;99.90
790;DHT22;378;48.844;9.156;2023-05-13T05:16:44;10.40;99.90
790;DHT22;378;48.844;9.156;2023-05-13T05:19:11;10.50;99.90
790;DHT22;378;48.844;9.156;2023-05-13T05:21:38;10.50;99.90
790;DHT22;378;48.844;9.156;2023-05-13T05:24:06;10.60;99.90
790;DHT22;378;48.844;9.156;2023-05-13T05:26:33;10.60;99.90
790;DHT22;378;48.844;9.156;2023-05-13T05:29:00;10.70;99.90
790;DHT22;378;48.844;9.156;2023-05-13T05:31:27;10.70;99.90
790;DHT22;378;48.844;9.156;2023-05-13T05:33:54;10.70;99.90
790;DHT22;378;48.844;9.156;2023-05-13T05:36:21;10.70;99.90
790;DHT22;378;48.844;9.156;2023-05-13T05:38:48;10.70;99.90
790;DHT22;378;48.844;9.156;2023-05-13T05:41:17;10.70;99.90
790;DHT22;378;48.844;9.156;2023-05-13T05:43:43;10.70;99.90
790;DHT22;378;48.844;9.156;2023-05-13T05:46:10;10.70;99.90
790;DHT22;378;48.844;9.156;2023-05-13T05:48:37;10.70;99.90
790;DHT22;378;48.844;9.156;2023-05-13T05:51:04;10.80;99.90
790;DHT22;378;48.844;9.156;2023-05-13T05:53:32;10.70;99.90
790;DHT22;378;48.844;9.156;2023-05-13T05:55:59;10.70;99.90
790;DHT22;378;48.844;9.156;2023-05-13T05:58:27;10.70;99.90
790;DHT22;378;48.844;9.156;2023-05-13T06:00:54;10.70;99.90
790;DHT22;378;48.844;9.156;2023-05-13T06:03:21;10.70;99.90
790;DHT22;378;48.844;9.156;2023-05-13T06:05:48;10.90;99.90
790;DHT22;378;48.844;9.156;2023-05-13T06:08:15;10.90;99.90
790;DHT22;378;48.844;9.156;2023-05-13T06:10:42;10.90;99.90
790;DHT22;378;48.844;9.156;2023-05-13T06:13:09;10.80;99.90
790;DHT22;378;48.844;9.156;2023-05-13T06:15:38;10.90;99.90
790;DHT22;378;48.844;9.156;2023-05-13T06:18:05;10.90;99.90
790;DHT22;378;48.844;9.156;2023-05-13T06:20:32;10.80;99.90
790;DHT22;378;48.844;9.156;2023-05-13T06:22:59;10.80;99.90
790;DHT22;378;48.844;9.156;2023-05-13T06:25:25;10.80;99.90
790;DHT22;378;48.844;9.156;2023-05-13T06:27:52;10.90;99.90
790;DHT22;378;48.844;9.156;2023-05-13T06:30:19;10.90;99.90
790;DHT22;378;48.844;9.156;2023-05-13T06:32:49;10.90;99.90
790;DHT22;378;48.844;9.156;2023-05-13T06:35:16;11.00;99.90
790;DHT22;378;48.844;9.156;2023-05-13T06:37:42;11.10;99.90
790;DHT22;378;48.844;9.156;2023-05-13T06:40:10;11.30;99.90
790;DHT22;378;48.844;9.156;2023-05-13T06:42:37;11.30;99.90
790;DHT22;378;48.844;9.156;2023-05-13T06:45:08;11.40;99.90
790;DHT22;378;48.844;9.156;2023-05-13T06:47:35;11.50;99.90
790;DHT22;378;48.844;9.156;2023-05-13T06:50:03;11.60;99.90
790;DHT22;378;48.844;9.156;2023-05-13T06:52:30;11.60;99.90
790;DHT22;378;48.844;9.156;2023-05-13T06:54:57;11.70;99.90
790;DHT22;378;48.844;9.156;2023-05-13T06:57:25;11.80;99.90
790;DHT22;378;48.844;9.156;2023-05-13T06:59:52;11.90;99.90
790;DHT22;378;48.844;9.156;2023-05-13T07:02:20;12.00;99.90
790;DHT22;378;48.844;9.156;2023-05-13T07:04:47;12.00;99.90
790;DHT22;378;48.844;9.156;2023-05-13T07:07:15;12.00;99.90
790;DHT22;378;48.844;9.156;2023-05-13T07:09:42;11.90;99.90
790;DHT22;378;48.844;9.156;2023-05-13T07:12:09;12.00;99.90
790;DHT22;378;48.844;9.156;2023-05-13T07:14:36;12.00;99.90
790;DHT22;378;48.844;9.156;2023-05-13T07:17:03;11.90;99.90
790;DHT22;378;48.844;9.156;2023-05-13T07:19:30;11.90;99.90
790;DHT22;378;48.844;9.156;2023-05-13T07:21:57;11.90;99.90
790;DHT22;378;48.844;9.156;2023-05-13T07:24:25;12.00;99.90
790;DHT22;378;48.844;9.156;2023-05-13T07:26:52;12.00;99.90
790;DHT22;378;48.844;9.156;2023-05-13T07:29:19;12.10;99.90
790;DHT22;378;48.844;9.156;2023-05-13T07:31:45;12.20;99.90
790;DHT22;378;48.844;9.156;2023-05-13T07:34:12;12.20;99.90
790;DHT22;378;48.844;9.156;2023-05-13T07:36:39;12.10;99.90
790;DHT22;378;48.844;9.156;2023-05-13T07:39:06;12.00;99.90
790;DHT22;378;48.844;9.156;2023-05-13T07:41:35;11.90;99.90
790;DHT22;378;48.844;9.156;2023-05-13T07:44:02;11.80;99.90
790;DHT22;378;48.844;9.156;2023-05-13T07:46:30;11.90;99.90
790;DHT22;378;48.844;9.156;2023-05-13T07:48:57;11.80;99.90
790;DHT22;378;48.844;9.156;2023-05-13T07:51:24;11.90;99.90
790;DHT22;378;48.844;9.156;2023-05-13T07:53:51;12.00;99.90
790;DHT22;378;48.844;9.156;2023-05-13T07:56:18;11.90;99.90
790;DHT22;378;48.844;9.156;2023-05-13T07:58:46;11.90;99.90
790;DHT22;378;48.844;9.156;2023-05-13T08:01:14;12.00;99.90
790;DHT22;378;48.844;9.156;2023-05-13T08:03:42;12.10;99.90
790;DHT22;378;48.844;9.156;2023-05-13T08:06:08;12.20;99.90
790;DHT22;378;48.844;9.156;2023-05-13T08:08:36;12.30;99.90
790;DHT22;378;48.844;9.156;2023-05-13T08:11:02;12.30;99.90
790;DHT22;378;48.844;9.156;2023-05-13T08:13:31;12.40;99.90
790;DHT22;378;48.844;9.156;2023-05-13T08:16:00;12.40;99.90
790;DHT22;378;48.844;9.156;2023-05-13T08:18:28;12.20;99.90
790;DHT22;378;48.844;9.156;2023-05-13T08:20:54;12.30;99.90
790;DHT22;378;48.844;9.156;2023-05-13T08:23:21;12.30;99.90
790;DHT22;378;48.844;9.156;2023-05-13T08:25:50;12.30;99.90
790;DHT22;378;48.844;9.156;2023-05-13T08:28:17;12.20;99.90
790;DHT22;378;48.844;9.156;2023-05-13T08:30:43;12.30;99.90
790;DHT22;378;48.844;9.156;2023-05-13T08:33:12;12.50;99.90
790;DHT22;378;48.844;9.156;2023-05-13T08:35:38;12.50;99.90
790;DHT22;378;48.844;9.156;2023-05-13T08:38:05;12.60;99.90
790;DHT22;378;48.844;9.156;2023-05-13T08:40:32;12.70;99.90
790;DHT22;378;48.844;9.156;2023-05-13T08:43:00;12.90;99.90
790;DHT22;378;48.844;9.156;2023-05-13T08:45:30;12.90;99.90
790;DHT22;378;48.844;9.156;2023-05-13T08:48:00;13.00;99.90
790;DHT22;378;48.844;9.156;2023-05-13T08:50:29;12.90;99.90
790;DHT22;378;48.844;9.156;2023-05-13T08:52:57;12.90;99.90
790;DHT22;378;48.844;9.156;2023-05-13T08:55:24;13.00;99.90
790;DHT22;378;48.844;9.156;2023-05-13T08:57:52;13.20;99.90
790;DHT22;378;48.844;9.156;2023-05-13T09:00:19;13.20;99.90
790;DHT22;378;48.844;9.156;2023-05-13T09:02:46;13.30;99.90
790;DHT22;378;48.844;9.156;2023-05-13T09:05:14;13.30;99.90
790;DHT22;378;48.844;9.156;2023-05-13T09:07:42;13.40;99.90
790;DHT22;378;48.844;9.156;2023-05-13T09:10:10;13.40;99.90
790;DHT22;378;48.844;9.156;2023-05-13T09:12:44;13.60;99.90
790;DHT22;378;48.844;9.156;2023-05-13T09:15:13;13.60;99.90
790;DHT22;378;48.844;9.156;2023-05-13T09:17:40;13.50;99.90
790;DHT22;378;48.844;9.156;2023-05-13T09:20:10;13.40;99.90
790;DHT22;378;48.844;9.156;2023-05-13T09:22:42;13.40;99.90
790;DHT22;378;48.844;9.156;2023-05-13T09:25:11;13.40;99.90
790;DHT22;378;48.844;9.156;2023-05-13T09:27:40;13.60;99.90
790;DHT22;378;48.844;9.156;2023-05-13T09:30:09;13.70;99.90
790;DHT22;378;48.844;9.156;2023-05-13T09:32:36;13.60;99.90
790;DHT22;378;48.844;9.156;2023-05-13T09:35:10;13.70;99.90
790;DHT22;378;48.844;9.156;2023-05-13T09:37:43;13.80;99.90
790;DHT22;378;48.844;9.156;2023-05-13T09:40:11;13.90;99.90
790;DHT22;378;48.844;9.156;2023-05-13T09:42:42;14.10;99.90
790;DHT22;378;48.844;9.156;2023-05-13T09:45:11;14.20;99.90
790;DHT22;378;48.844;9.156;2023-05-13T09:47:38;14.20;99.90
790;DHT22;378;48.844;9.156;2023-05-13T09:50:06;14.20;99.90
790;DHT22;378;48.844;9.156;2023-05-13T09:52:35;14.30;99.90
790;DHT22;378;48.844;9.156;2023-05-13T09:55:07;14.30;99.90
790;DHT22;378;48.844;9.156;2023-05-13T09:57:34;14.50;99.90
790;DHT22;378;48.844;9.156;2023-05-13T10:00:04;14.40;99.90
790;DHT22;378;48.844;9.156;2023-05-13T10:02:31;14.40;99.90
790;DHT22;378;48.844;9.156;2023-05-13T10:04:59;14.60;99.90
790;DHT22;378;48.844;9.156;2023-05-13T10:07:27;14.90;99.90
790;DHT22;378;48.844;9.156;2023-05-13T10:12:26;15.10;99.90
790;DHT22;378;48.844;9.156;2023-05-13T10:14:54;15.00;99.90
790;DHT22;378;48.844;9.156;2023-05-13T10:17:24;14.90;99.90
790;DHT22;378;48.844;9.156;2023-05-13T10:19:52;14.80;99.90
790;DHT22;378;48.844;9.156;2023-05-13T10:22:26;14.50;99.90
790;DHT22;378;48.844;9.156;2023-05-13T10:24:55;14.30;99.90
790;DHT22;378;48.844;9.156;2023-05-13T10:27:27;14.00;99.90
790;DHT22;378;48.844;9.156;2023-05-13T10:29:55;13.90;99.90
790;DHT22;378;48.844;9.156;2023-05-13T10:32:23;13.80;99.90
790;DHT22;378;48.844;9.156;2023-05-13T10:34:55;13.80;99.90
790;DHT22;378;48.844;9.156;2023-05-13T10:37:39;13.80;99.90
790;DHT22;378;48.844;9.156;2023-05-13T10:43:16;13.90;99.90
790;DHT22;378;48.844;9.156;2023-05-13T10:45:44;13.90;99.90
790;DHT22;378;48.844;9.156;2023-05-13T10:48:12;13.90;99.90
790;DHT22;378;48.844;9.156;2023-05-13T10:50:49;13.90;99.90
790;DHT22;378;48.844;9.156;2023-05-13T10:53:20;14.00;99.90
790;DHT22;378;48.844;9.156;2023-05-13T10:55:52;14.10;99.90
790;DHT22;378;48.844;9.156;2023-05-13T10:58:21;14.10;99.90
790;DHT22;378;48.844;9.156;2023-05-13T11:01:11;13.90;99.90
790;DHT22;378;48.844;9.156;2023-05-13T11:03:39;13.90;99.90
790;DHT22;378;48.844;9.156;2023-05-13T11:06:16;13.90;99.90
790;DHT22;378;48.844;9.156;2023-05-13T11:08:46;13.80;99.90
790;DHT22;378;48.844;9.156;2023-05-13T11:11:24;13.80;99.90
790;DHT22;378;48.844;9.156;2023-05-13T11:13:54;13.80;99.90
790;DHT22;378;48.844;9.156;2023-05-13T11:16:21;14.00;99.90
790;DHT22;378;48.844;9.156;2023-05-13T11:18:49;14.30;99.90
790;DHT22;378;48.844;9.156;2023-05-13T11:21:16;14.50;99.90
790;DHT22;378;48.844;9.156;2023-05-13T11:23:51;14.90;99.90
790;DHT22;378;48.844;9.156;2023-05-13T11:26:18;15.40;99.90
790;DHT22;378;48.844;9.156;2023-05-13T11:29:02;15.60;99.90
790;DHT22;378;48.844;9.156;2023-05-13T11:31:42;15.70;99.90
790;DHT22;378;48.844;9.156;2023-05-13T11:34:11;15.50;99.90
790;DHT22;378;48.844;9.156;2023-05-13T11:36:39;15.20;99.90
790;DHT22;378;48.844;9.156;2023-05-13T11:39:07;15.00;99.90
790;DHT22;378;48.844;9.156;2023-05-13T11:41:36;14.90;99.90
790;DHT22;378;48.844;9.156;2023-05-13T11:44:05;14.90;99.90
790;DHT22;378;48.844;9.156;2023-05-13T11:46:32;14.80;99.90
790;DHT22;378;48.844;9.156;2023-05-13T11:48:59;14.80;99.90
790;DHT22;378;48.844;9.156;2023-05-13T11:51:26;15.10;99.90
790;DHT22;378;48.844;9.156;2023-05-13T11:53:59;15.60;99.90
790;DHT22;378;48.844;9.156;2023-05-13T11:56:26;15.90;99.90
790;DHT22;378;48.844;9.156;2023-05-13T11:58:54;15.90;99.90
790;DHT22;378;48.844;9.156;2023-05-13T12:01:22;15.90;99.90
790;DHT22;378;48.844;9.156;2023-05-13T12:03:49;15.90;99.90
790;DHT22;378;48.844;9.156;2023-05-13T12:06:26;15.70;99.90
790;DHT22;378;48.844;9.156;2023-05-13T12:08:53;15.60;99.90
790;DHT22;378;48.844;9.156;2023-05-13T12:11:20;15.60;99.90
790;DHT22;378;48.844;9.156;2023-05-13T12:13:47;15.50;99.90
790;DHT22;378;48.844;9.156;2023-05-13T12:16:14;15.40;99.90
790;DHT22;378;48.844;9.156;2023-05-13T12:18:54;15.40;99.90
790;DHT22;378;48.844;9.156;2023-05-13T12:21:21;15.50;99.90
790;DHT22;378;48.844;9.156;2023-05-13T12:23:48;15.80;99.90
790;DHT22;378;48.844;9.156;2023-05-13T12:26:15;15.80;99.90
790;DHT22;378;48.844;9.156;2023-05-13T12:28:42;15.80;99.90
790;DHT22;378;48.844;9.156;2023-05-13T12:31:15;15.70;99.90
790;DHT22;378;48.844;9.156;2023-05-13T12:33:43;15.80;99.90
790;DHT22;378;48.844;9.156;2023-05-13T12:36:15;15.80;99.90
790;DHT22;378;48.844;9.156;2023-05-13T12:38:58;15.60;99.90
790;DHT22;378;48.844;9.156;2023-05-13T12:41:26;15.70;99.90
790;DHT22;378;48.844;9.156;2023-05-13T12:43:58;15.70;99.90
790;DHT22;378;48.844;9.156;2023-05-13T12:46:25;15.60;99.90
790;DHT22;378;48.844;9.156;2023-05-13T12:48:56;15.50;99.90
790;DHT22;378;48.844;9.156;2023-05-13T12:51:23;15.60;99.90
790;DHT22;378;48.844;9.156;2023-05-13T12:53:50;15.70;99.90
790;DHT22;378;48.844;9.156;2023-05-13T12:56:19;15.60;99.90
790;DHT22;378;48.844;9.156;2023-05-13T12:58:46;15.70;99.90
790;DHT22;378;48.844;9.156;2023-05-13T13:01:13;15.70;99.90
790;DHT22;378;48.844;9.156;2023-05-13T13:03:40;16.00;99.90
790;DHT22;378;48.844;9.156;2023-05-13T13:06:08;16.80;99.90
790;DHT22;378;48.844;9.156;2023-05-13T13:08:36;17.50;99.90
790;DHT22;378;48.844;9.156;2023-05-13T13:11:02;18.00;99.90
790;DHT22;378;48.844;9.156;2023-05-13T13:13:30;18.20;99.90
790;DHT22;378;48.844;9.156;2023-05-13T13:15:57;18.50;99.90
790;DHT22;378;48.844;9.156;2023-05-13T13:18:24;18.50;99.90
790;DHT22;378;48.844;9.156;2023-05-13T13:20:51;19.60;99.90
790;DHT22;378;48.844;9.156;2023-05-13T13:23:20;19.50;99.90
790;DHT22;378;48.844;9.156;2023-05-13T13:25:47;19.70;99.90
790;DHT22;378;48.844;9.156;2023-05-13T13:28:14;19.60;99.90
790;DHT22;378;48.844;9.156;2023-05-13T13:30:40;19.40;99.90
790;DHT22;378;48.844;9.156;2023-05-13T13:33:12;19.30;99.90
790;DHT22;378;48.844;9.156;2023-05-13T13:35:39;19.30;99.90
790;DHT22;378;48.844;9.156;2023-05-13T13:38:06;18.90;99.90
790;DHT22;378;48.844;9.156;2023-05-13T13:40:34;18.10;99.90
790;DHT22;378;48.844;9.156;2023-05-13T13:43:01;17.30;99.90
790;DHT22;378;48.844;9.156;2023-05-13T13:45:28;16.70;99.90
790;DHT22;378;48.844;9.156;2023-05-13T13:47:55;16.40;99.90
790;DHT22;378;48.844;9.156;2023-05-13T13:50:22;16.50;99.90
790;DHT22;378;48.844;9.156;2023-05-13T13:52:49;16.50;99.90
790;DHT22;378;48.844;9.156;2023-05-13T13:55:17;16.60;99.90
790;DHT22;378;48.844;9.156;2023-05-13T13:57:46;16.60;99.90
790;DHT22;378;48.844;9.156;2023-05-13T14:00:14;16.80;99.90
790;DHT22;378;48.844;9.156;2023-05-13T14:02:41;17.60;99.90
790;DHT22;378;48.844;9.156;2023-05-13T14:05:09;18.90;99.90
790;DHT22;378;48.844;9.156;2023-05-13T14:07:36;19.30;99.90
790;DHT22;378;48.844;9.156;2023-05-13T14:10:04;19.60;99.90
790;DHT22;378;48.844;9.156;2023-05-13T14:12:31;18.50;99.90
790;DHT22;378;48.844;9.156;2023-05-13T14:14:59;18.10;99.90
790;DHT22;378;48.844;9.156;2023-05-13T14:17:26;18.50;99.90
790;DHT22;378;48.844;9.156;2023-05-13T14:19:52;19.60;99.90
790;DHT22;378;48.844;9.156;2023-05-13T14:22:20;20.50;99.90
790;DHT22;378;48.844;9.156;2023-05-13T14:24:49;21.30;99.90
790;DHT22;378;48.844;9.156;2023-05-13T14:27:16;20.70;99.90
790;DHT22;378;48.844;9.156;2023-05-13T14:29:44;19.20;99.90
790;DHT22;378;48.844;9.156;2023-05-13T14:32:12;18.40;99.90
790;DHT22;378;48.844;9.156;2023-05-13T14:34:39;17.60;99.90
790;DHT22;378;48.844;9.156;2023-05-13T14:37:06;17.10;99.90
790;DHT22;378;48.844;9.156;2023-05-13T14:39:33;16.90;99.90
790;DHT22;378;48.844;9.156;2023-05-13T14:42:00;16.80;99.90
790;DHT22;378;48.844;9.156;2023-05-13T14:44:27;16.80;99.90
790;DHT22;378;48.844;9.156;2023-05-13T14:46:54;16.70;99.90
790;DHT22;378;48.844;9.156;2023-05-13T14:49:22;16.50;99.90
790;DHT22;378;48.844;9.156;2023-05-13T14:51:49;16.50;99.90
790;DHT22;378;48.844;9.156;2023-05-13T14:54:16;16.70;99.90
790;DHT22;378;48.844;9.156;2023-05-13T14:56:43;16.80;99.90
790;DHT22;378;48.844;9.156;2023-05-13T14:59:10;16.80;99.90
790;DHT22;378;48.844;9.156;2023-05-13T15:01:37;16.90;99.90
790;DHT22;378;48.844;9.156;2023-05-13T15:04:04;17.00;99.90
790;DHT22;378;48.844;9.156;2023-05-13T15:06:32;16.90;99.90
790;DHT22;378;48.844;9.156;2023-05-13T15:08:59;16.80;99.90
790;DHT22;378;48.844;9.156;2023-05-13T15:11:27;16.80;99.90
790;DHT22;378;48.844;9.156;2023-05-13T15:13:54;16.80;99.90
790;DHT22;378;48.844;9.156;2023-05-13T15:16:21;16.70;99.90
790;DHT22;378;48.844;9.156;2023-05-13T15:18:48;16.70;99.90
790;DHT22;378;48.844;9.156;2023-05-13T15:21:15;16.80;99.90
790;DHT22;378;48.844;9.156;2023-05-13T15:23:44;16.70;99.90
790;DHT22;378;48.844;9.156;2023-05-13T15:26:10;16.80;99.90
790;DHT22;378;48.844;9.156;2023-05-13T15:28:37;16.80;99.90
790;DHT22;378;48.844;9.156;2023-05-13T15:31:04;16.90;99.90
790;DHT22;378;48.844;9.156;2023-05-13T15:33:31;17.00;99.90
790;DHT22;378;48.844;9.156;2023-05-13T15:35:59;16.90;99.90
790;DHT22;378;48.844;9.156;2023-05-13T15:38:26;16.80;99.90
790;DHT22;378;48.844;9.156;2023-05-13T15:40:54;16.70;99.90
790;DHT22;378;48.844;9.156;2023-05-13T15:43:21;16.50;99.90
790;DHT22;378;48.844;9.156;2023-05-13T15:45:47;16.30;99.90
790;DHT22;378;48.844;9.156;2023-05-13T15:48:15;16.10;99.90
790;DHT22;378;48.844;9.156;2023-05-13T15:50:42;16.00;99.90
790;DHT22;378;48.844;9.156;2023-05-13T15:53:09;15.90;99.90
790;DHT22;378;48.844;9.156;2023-05-13T15:55:36;15.90;99.90
790;DHT22;378;48.844;9.156;2023-05-13T15:58:05;15.80;99.90
790;DHT22;378;48.844;9.156;2023-05-13T16:00:32;15.70;99.90
790;DHT22;378;48.844;9.156;2023-05-13T16:02:59;15.70;99.90
790;DHT22;378;48.844;9.156;2023-05-13T16:05:26;15.60;99.90
790;DHT22;378;48.844;9.156;2023-05-13T16:07:52;15.50;99.90
790;DHT22;378;48.844;9.156;2023-05-13T16:12:48;15.50;99.90
790;DHT22;378;48.844;9.156;2023-05-13T16:15:16;15.40;99.90
790;DHT22;378;48.844;9.156;2023-05-13T16:17:43;15.40;99.90
790;DHT22;378;48.844;9.156;2023-05-13T16:20:10;15.20;99.90
790;DHT22;378;48.844;9.156;2023-05-13T16:22:37;15.20;99.90
790;DHT22;378;48.844;9.156;2023-05-13T16:25:06;15.20;99.90
790;DHT22;378;48.844;9.156;2023-05-13T16:27:34;15.20;99.90
790;DHT22;378;48.844;9.156;2023-05-13T16:30:02;15.10;99.90
790;DHT22;378;48.844;9.156;2023-05-13T16:32:30;15.00;99.90
790;DHT22;378;48.844;9.156;2023-05-13T16:34:57;15.00;99.90
790;DHT22;378;48.844;9.156;2023-05-13T16:37:26;14.90;99.90
790;DHT22;378;48.844;9.156;2023-05-13T16:39:52;14.80;99.90
790;DHT22;378;48.844;9.156;2023-05-13T16:42:19;14.80;99.90
790;DHT22;378;48.844;9.156;2023-05-13T16:44:46;14.70;99.90
790;DHT22;378;48.844;9.156;2023-05-13T16:47:13;14.70;99.90
790;DHT22;378;48.844;9.156;2023-05-13T16:49:41;14.70;99.90